Time;durP1;ratioP1;P1;durP2;ratioP2;P2;SDS_P1;SDS_P2;PMS_P1;PMS_P2;Temp;Humidity;BMP_temperature;BMP_pressure;BME280_temperature;BME280_humidity;BME280_pressure;Samples;Min_cycle;Max_cycle;Signal;HPM_P1;HPM_P2
2021/11/27 00:00:54;;;;;;;6.20;5.67;;;2.40;99.90;;;;;;5065014;28;20231;-75
2021/11/27 00:03:20;;;;;;;6.27;5.67;;;2.40;99.90;;;;;;5072818;28;20634;-76
2021/11/27 00:05:47;;;;;;;6.33;5.73;;;2.40;99.90;;;;;;5071799;28;20173;-76
2021/11/27 00:08:14;;;;;;;7.13;5.37;;;2.40;99.90;;;;;;5059151;28;20284;-75
2021/11/27 00:10:43;;;;;;;10.27;6.60;;;2.40;99.90;;;;;;5065709;28;20186;-76
2021/11/27 00:13:09;;;;;;;6.80;5.77;;;2.40;99.90;;;;;;5056264;28;20573;-76
2021/11/27 00:15:37;;;;;;;15.63;9.73;;;2.40;99.90;;;;;;5059990;28;20169;-76
2021/11/27 00:18:04;;;;;;;7.30;6.20;;;2.40;99.90;;;;;;5072891;28;20644;-76
2021/11/27 00:20:52;;;;;;;6.43;5.83;;;2.50;99.90;;;;;;5072897;28;20169;-76
2021/11/27 00:23:18;;;;;;;7.83;5.60;;;2.40;99.90;;;;;;5072955;28;20193;-76
2021/11/27 00:25:44;;;;;;;7.70;6.17;;;2.40;99.90;;;;;;5076950;28;20235;-76
2021/11/27 00:28:10;;;;;;;8.30;6.33;;;2.40;99.90;;;;;;5073477;28;20205;-76
2021/11/27 00:30:38;;;;;;;11.87;7.03;;;2.40;99.90;;;;;;5074719;28;20180;-77
2021/11/27 00:33:05;;;;;;;11.20;7.27;;;2.40;99.90;;;;;;5075176;28;20256;-75
2021/11/27 00:35:31;;;;;;;13.80;8.70;;;2.40;99.90;;;;;;5075781;28;20168;-76
2021/11/27 00:37:58;;;;;;;13.27;7.27;;;2.50;99.90;;;;;;5076609;28;20688;-76
2021/11/27 00:40:26;;;;;;;9.27;6.23;;;2.50;99.90;;;;;;5075698;28;20219;-75
2021/11/27 00:42:54;;;;;;;9.73;6.40;;;2.40;99.90;;;;;;5075188;28;20224;-76
2021/11/27 00:45:21;;;;;;;6.23;5.60;;;2.50;99.90;;;;;;5076503;28;20674;-76
2021/11/27 00:47:49;;;;;;;6.47;5.37;;;2.40;99.90;;;;;;5076285;28;20318;-76
2021/11/27 00:50:19;;;;;;;8.57;6.30;;;2.40;99.90;;;;;;5076412;28;20165;-76
2021/11/27 00:52:44;;;;;;;9.80;6.70;;;2.30;99.90;;;;;;5076414;28;20199;-75
2021/11/27 00:55:11;;;;;;;6.97;5.43;;;2.30;99.90;;;;;;5076540;28;20243;-76
2021/11/27 00:57:39;;;;;;;7.00;5.13;;;2.20;99.90;;;;;;5076321;28;20215;-75
2021/11/27 01:00:12;;;;;;;5.10;4.60;;;2.40;99.90;;;;;;5076287;28;20171;-76
2021/11/27 01:02:37;;;;;;;5.70;4.47;;;2.40;99.90;;;;;;5075847;28;20212;-75
2021/11/27 01:05:06;;;;;;;5.40;4.03;;;2.40;99.90;;;;;;5076114;28;20167;-76
2021/11/27 01:07:32;;;;;;;5.07;4.57;;;2.40;99.90;;;;;;5076086;28;20170;-75
2021/11/27 01:09:58;;;;;;;4.67;4.10;;;2.40;99.90;;;;;;5076081;28;20574;-75
2021/11/27 01:12:24;;;;;;;4.57;4.10;;;2.40;99.90;;;;;;5058541;28;20255;-76
2021/11/27 01:14:50;;;;;;;5.53;4.60;;;2.40;99.90;;;;;;5075927;28;20177;-76
2021/11/27 01:17:16;;;;;;;4.63;4.23;;;2.40;99.90;;;;;;5075969;28;20248;-75
2021/11/27 01:19:43;;;;;;;5.50;4.63;;;2.40;99.90;;;;;;5075973;28;20172;-75
2021/11/27 01:22:14;;;;;;;5.00;4.50;;;2.30;99.90;;;;;;5074399;28;20228;-75
2021/11/27 01:24:41;;;;;;;4.70;4.30;;;2.50;99.90;;;;;;5075787;28;20667;-75
2021/11/27 01:27:07;;;;;;;5.43;4.90;;;2.40;99.90;;;;;;5075671;28;20178;-76
2021/11/27 01:29:33;;;;;;;4.67;4.20;;;2.40;99.90;;;;;;5075700;28;20173;-76
2021/11/27 01:31:58;;;;;;;5.37;4.77;;;2.40;99.90;;;;;;5075703;28;20596;-75
2021/11/27 01:34:25;;;;;;;6.67;4.93;;;2.40;99.90;;;;;;5075164;28;20544;-76
2021/11/27 01:36:51;;;;;;;5.57;4.80;;;2.40;99.90;;;;;;5074306;28;20264;-75
2021/11/27 01:39:16;;;;;;;5.47;4.80;;;2.60;99.90;;;;;;5075416;28;20261;-76
2021/11/27 01:41:42;;;;;;;4.77;4.37;;;2.50;99.90;;;;;;5075411;28;20200;-75
2021/11/27 01:44:08;;;;;;;6.27;5.27;;;2.50;99.90;;;;;;5075425;28;20178;-76
2021/11/27 01:46:35;;;;;;;5.23;4.77;;;2.50;99.90;;;;;;5075405;28;20173;-76
2021/11/27 01:49:02;;;;;;;4.70;4.30;;;2.60;99.90;;;;;;5075480;28;20170;-75
2021/11/27 01:51:29;;;;;;;6.63;5.33;;;2.60;99.90;;;;;;5075257;28;20216;-75
2021/11/27 01:53:58;;;;;;;5.60;5.00;;;2.60;99.90;;;;;;5075321;28;20201;-75
2021/11/27 01:56:35;;;;;;;5.93;4.80;;;2.60;99.90;;;;;;5063295;28;20173;-75
2021/11/27 01:59:00;;;;;;;6.50;5.10;;;2.60;99.90;;;;;;5075455;28;20177;-75
2021/11/27 02:01:30;;;;;;;4.87;4.47;;;2.70;99.90;;;;;;5074920;28;20293;-75
2021/11/27 02:03:56;;;;;;;5.60;5.10;;;2.80;99.90;;;;;;5069886;28;20259;-75
2021/11/27 02:06:24;;;;;;;6.43;5.40;;;2.60;99.90;;;;;;5055575;28;20261;-75
2021/11/27 02:08:51;;;;;;;7.07;6.10;;;2.70;99.90;;;;;;5075000;28;20241;-74
2021/11/27 02:11:28;;;;;;;5.83;5.23;;;2.60;99.90;;;;;;5056568;28;20201;-76
2021/11/27 02:13:55;;;;;;;6.27;5.67;;;2.50;99.90;;;;;;5050217;28;20175;-75
2021/11/27 02:16:21;;;;;;;6.07;5.47;;;2.70;99.90;;;;;;5074855;28;20178;-75
2021/11/27 02:18:47;;;;;;;8.33;6.73;;;2.70;99.90;;;;;;5074751;28;20185;-75
2021/11/27 02:21:17;;;;;;;14.20;7.90;;;2.60;99.90;;;;;;5073419;28;20213;-76
2021/11/27 02:23:43;;;;;;;10.73;7.03;;;2.60;99.90;;;;;;5074475;28;20201;-76
2021/11/27 02:26:12;;;;;;;13.33;7.53;;;2.70;99.90;;;;;;5073252;28;20248;-76
2021/11/27 02:28:40;;;;;;;10.00;7.40;;;2.60;99.90;;;;;;5074534;28;20258;-76
2021/11/27 02:31:06;;;;;;;15.20;8.37;;;2.60;99.90;;;;;;5073671;28;20199;-76
2021/11/27 02:33:32;;;;;;;13.63;8.00;;;2.60;99.90;;;;;;5074493;28;20186;-75
2021/11/27 02:35:58;;;;;;;11.93;7.97;;;2.60;99.90;;;;;;5074371;28;20656;-76
2021/11/27 02:38:23;;;;;;;14.27;8.80;;;2.60;99.90;;;;;;5073143;28;20170;-76
2021/11/27 02:40:49;;;;;;;10.57;7.30;;;2.70;99.90;;;;;;5074153;28;20263;-77
2021/11/27 02:43:15;;;;;;;11.33;7.77;;;2.60;99.90;;;;;;5062040;28;20277;-76
2021/11/27 02:45:41;;;;;;;11.00;8.13;;;2.70;99.90;;;;;;5046194;28;20171;-76
2021/11/27 02:48:08;;;;;;;10.03;6.77;;;2.70;99.90;;;;;;5071352;28;20636;-76
2021/11/27 02:50:34;;;;;;;9.63;7.10;;;2.60;99.90;;;;;;5072015;28;20161;-76
2021/11/27 02:53:00;;;;;;;10.37;6.70;;;2.60;99.90;;;;;;5073478;28;20170;-76
2021/11/27 02:55:26;;;;;;;7.23;5.90;;;2.60;99.90;;;;;;5074370;28;20177;-76
2021/11/27 02:57:52;;;;;;;7.83;6.10;;;2.60;99.90;;;;;;5073896;28;20178;-76
2021/11/27 03:00:20;;;;;;;10.03;7.40;;;2.60;99.90;;;;;;5074099;28;20649;-76
2021/11/27 03:02:49;;;;;;;10.83;6.27;;;2.60;99.90;;;;;;5073918;28;20212;-76
2021/11/27 03:05:17;;;;;;;10.77;7.33;;;2.70;99.90;;;;;;5074183;28;20170;-75
2021/11/27 03:07:43;;;;;;;15.63;8.57;;;2.60;99.90;;;;;;5072546;28;20178;-76
2021/11/27 03:10:10;;;;;;;16.17;8.93;;;2.70;99.90;;;;;;5073694;28;20168;-75
2021/11/27 03:12:37;;;;;;;12.43;8.83;;;2.60;99.90;;;;;;5056272;28;20687;-75
2021/11/27 03:15:03;;;;;;;17.07;9.87;;;2.60;99.90;;;;;;5073669;28;20177;-76
2021/11/27 03:17:29;;;;;;;10.60;7.77;;;2.60;99.90;;;;;;5074036;28;20256;-76
2021/11/27 03:19:55;;;;;;;7.93;6.47;;;2.60;99.90;;;;;;5073519;28;20590;-76
2021/11/27 03:22:22;;;;;;;6.93;6.23;;;2.60;99.90;;;;;;5073543;28;20546;-76
2021/11/27 03:24:48;;;;;;;6.10;5.50;;;2.60;99.90;;;;;;5072217;28;20260;-76
2021/11/27 03:27:15;;;;;;;7.00;6.30;;;2.50;99.90;;;;;;5073456;28;20180;-76
2021/11/27 03:29:41;;;;;;;6.80;6.17;;;2.50;99.90;;;;;;5073430;28;20542;-76
2021/11/27 03:32:13;;;;;;;9.87;6.57;;;2.60;99.90;;;;;;5073388;28;20554;-76
2021/11/27 03:34:39;;;;;;;8.33;6.27;;;2.50;99.90;;;;;;5072474;28;20523;-76
2021/11/27 03:37:06;;;;;;;7.07;6.37;;;2.60;99.90;;;;;;5073384;28;20174;-76
2021/11/27 03:39:32;;;;;;;7.67;6.50;;;2.50;99.90;;;;;;5073286;28;20227;-76
2021/11/27 03:42:03;;;;;;;9.60;7.50;;;2.50;99.90;;;;;;5073205;28;20193;-76
2021/11/27 03:44:29;;;;;;;12.83;8.20;;;2.50;99.90;;;;;;5073346;28;20176;-76
2021/11/27 03:46:59;;;;;;;14.83;8.33;;;2.40;99.90;;;;;;5073365;28;20165;-76
2021/11/27 03:49:28;;;;;;;12.97;9.20;;;2.40;99.90;;;;;;5070160;28;20173;-77
2021/11/27 03:51:55;;;;;;;9.70;7.50;;;2.40;99.90;;;;;;5061394;28;20193;-76
2021/11/27 03:54:21;;;;;;;8.97;7.33;;;2.40;99.90;;;;;;5071842;28;20165;-77
2021/11/27 03:56:47;;;;;;;11.07;8.33;;;2.30;99.90;;;;;;5071321;28;20176;-76
2021/11/27 03:59:14;;;;;;;8.40;6.87;;;2.30;99.90;;;;;;5044560;28;20167;-77
2021/11/27 04:01:39;;;;;;;9.93;7.53;;;2.30;99.90;;;;;;5051795;28;20701;-76
2021/11/27 04:04:06;;;;;;;9.60;6.80;;;2.30;99.90;;;;;;5034673;28;20189;-77
2021/11/27 04:06:33;;;;;;;10.37;7.73;;;2.30;99.90;;;;;;5035822;28;20175;-76
2021/11/27 04:09:00;;;;;;;9.07;7.10;;;2.40;99.90;;;;;;5033190;28;20162;-76
2021/11/27 04:11:26;;;;;;;11.23;8.50;;;2.40;99.90;;;;;;5042809;28;20194;-76
2021/11/27 04:13:53;;;;;;;8.67;7.47;;;2.50;99.90;;;;;;5039969;28;20175;-76
2021/11/27 04:16:19;;;;;;;13.30;9.07;;;2.50;99.90;;;;;;5036178;28;20182;-75
2021/11/27 04:18:45;;;;;;;13.67;8.87;;;2.40;99.90;;;;;;5037912;28;20177;-76
2021/11/27 04:21:12;;;;;;;10.57;7.23;;;2.40;99.90;;;;;;5034535;28;20274;-76
2021/11/27 04:23:38;;;;;;;7.97;7.17;;;3.20;99.90;;;;;;5035761;28;20622;-75
2021/11/27 04:26:04;;;;;;;9.40;6.90;;;2.40;99.90;;;;;;5040514;28;20209;-77
2021/11/27 04:28:30;;;;;;;11.77;6.53;;;2.30;99.90;;;;;;5035508;28;20198;-77
2021/11/27 04:30:56;;;;;;;9.07;6.80;;;2.30;99.90;;;;;;5036430;28;20228;-77
2021/11/27 04:33:21;;;;;;;7.77;6.67;;;2.40;99.90;;;;;;5032357;28;20178;-77
2021/11/27 04:35:48;;;;;;;11.90;6.93;;;2.30;99.90;;;;;;5034172;28;20193;-77
2021/11/27 04:38:14;;;;;;;8.60;6.70;;;2.30;99.90;;;;;;5032163;28;20649;-77
2021/11/27 04:40:40;;;;;;;8.67;6.07;;;2.40;99.90;;;;;;5060275;28;20205;-76
2021/11/27 04:43:05;;;;;;;7.47;6.17;;;2.30;99.90;;;;;;5072629;28;20677;-76
2021/11/27 04:45:32;;;;;;;7.63;6.07;;;2.40;99.90;;;;;;5072386;28;20173;-76
2021/11/27 04:47:58;;;;;;;7.67;6.70;;;2.40;99.90;;;;;;5072620;28;20248;-76
2021/11/27 04:50:26;;;;;;;8.00;6.07;;;2.40;99.90;;;;;;5071371;28;20165;-76
2021/11/27 04:52:51;;;;;;;6.00;5.47;;;2.30;99.90;;;;;;5072544;28;20672;-77
2021/11/27 04:55:18;;;;;;;7.30;6.20;;;2.30;99.90;;;;;;5072677;28;20177;-77
2021/11/27 04:57:44;;;;;;;8.20;6.37;;;2.30;99.90;;;;;;5072763;28;20645;-77
2021/11/27 05:00:19;;;;;;;7.47;6.57;;;2.30;99.90;;;;;;5070653;28;20207;-78
2021/11/27 05:02:45;;;;;;;7.33;6.53;;;2.30;99.90;;;;;;5045639;28;20214;-77
2021/11/27 05:05:11;;;;;;;7.70;6.77;;;2.30;99.90;;;;;;5072079;28;20177;-77
2021/11/27 05:07:37;;;;;;;8.80;6.90;;;2.40;99.90;;;;;;5064112;28;20169;-78
2021/11/27 05:10:04;;;;;;;8.70;6.87;;;2.40;99.90;;;;;;5071369;28;20219;-77
2021/11/27 05:12:29;;;;;;;8.13;6.70;;;2.40;99.90;;;;;;5056808;28;20203;-77
2021/11/27 05:14:55;;;;;;;7.67;6.90;;;2.50;99.90;;;;;;5075958;28;20175;-76
2021/11/27 05:17:20;;;;;;;11.00;7.47;;;2.40;99.90;;;;;;5076053;28;20248;-76
2021/11/27 05:19:46;;;;;;;6.73;5.50;;;2.40;99.90;;;;;;5065449;28;20211;-77
2021/11/27 05:22:12;;;;;;;7.13;5.10;;;2.60;99.90;;;;;;5043730;28;20198;-77
2021/11/27 05:24:43;;;;;;;6.57;5.67;;;2.50;99.90;;;;;;5041197;28;20623;-77
2021/11/27 05:27:11;;;;;;;5.63;4.97;;;2.50;99.90;;;;;;5035578;28;20167;-77
2021/11/27 05:29:38;;;;;;;5.00;4.60;;;2.60;99.90;;;;;;5034841;28;20213;-77
2021/11/27 05:32:05;;;;;;;6.53;4.87;;;2.60;99.90;;;;;;5040125;28;20190;-76
2021/11/27 05:34:34;;;;;;;5.13;4.63;;;2.60;99.90;;;;;;5043223;28;20173;-76
2021/11/27 05:37:02;;;;;;;5.10;4.47;;;2.60;99.90;;;;;;5038676;28;20166;-77
2021/11/27 05:39:28;;;;;;;5.30;4.57;;;2.60;99.90;;;;;;5039829;28;20178;-76
2021/11/27 05:41:54;;;;;;;5.53;5.03;;;2.60;99.90;;;;;;5036250;28;20202;-77
2021/11/27 05:44:19;;;;;;;4.97;4.50;;;2.60;99.90;;;;;;5036930;28;20247;-77
2021/11/27 05:46:45;;;;;;;4.80;4.30;;;2.60;99.90;;;;;;5033795;28;20223;-77
2021/11/27 05:49:10;;;;;;;4.57;4.13;;;2.60;99.90;;;;;;5038059;28;20169;-77
2021/11/27 05:51:36;;;;;;;4.30;3.90;;;2.60;99.90;;;;;;5047141;28;20233;-77
2021/11/27 05:54:02;;;;;;;3.97;3.57;;;2.70;99.90;;;;;;5037928;28;20173;-76
2021/11/27 05:56:27;;;;;;;3.67;3.37;;;2.80;99.90;;;;;;5039782;28;20169;-76
2021/11/27 05:58:56;;;;;;;3.83;3.47;;;2.70;99.90;;;;;;5046466;28;20178;-77
2021/11/27 06:01:22;;;;;;;3.47;3.00;;;2.80;99.90;;;;;;5038126;28;20196;-76
2021/11/27 06:03:47;;;;;;;3.57;3.00;;;2.80;99.90;;;;;;5043458;28;20197;-76
2021/11/27 06:06:13;;;;;;;2.30;2.10;;;2.80;99.90;;;;;;5041328;28;20292;-77
2021/11/27 06:08:39;;;;;;;2.27;2.07;;;2.90;99.90;;;;;;5051093;28;20534;-76
2021/11/27 06:11:04;;;;;;;2.43;2.23;;;3.00;99.90;;;;;;5061351;28;20245;-77
2021/11/27 06:13:30;;;;;;;2.47;2.27;;;2.90;99.90;;;;;;5071765;28;20169;-76
2021/11/27 06:15:56;;;;;;;2.30;2.10;;;2.90;99.90;;;;;;5073667;28;20626;-76
2021/11/27 06:18:21;;;;;;;2.20;2.00;;;3.10;99.90;;;;;;5073439;28;20253;-76
2021/11/27 06:20:47;;;;;;;2.20;2.00;;;3.00;99.90;;;;;;5074686;28;20261;-76
2021/11/27 06:23:14;;;;;;;2.23;1.97;;;3.00;99.90;;;;;;5073417;28;20198;-78
2021/11/27 06:25:39;;;;;;;2.03;1.83;;;3.00;99.90;;;;;;5074965;28;20250;-76
2021/11/27 06:28:05;;;;;;;2.07;1.70;;;2.90;99.90;;;;;;5074805;28;20204;-76
2021/11/27 06:30:31;;;;;;;3.30;3.10;;;2.90;99.90;;;;;;5073171;28;20180;-77
2021/11/27 06:32:56;;;;;;;2.23;2.03;;;2.80;99.90;;;;;;5074701;28;20216;-76
2021/11/27 06:35:22;;;;;;;2.70;2.50;;;2.80;99.90;;;;;;5073801;28;20187;-76
2021/11/27 06:37:48;;;;;;;3.50;3.20;;;2.80;99.90;;;;;;5074329;28;20166;-77
2021/11/27 06:40:14;;;;;;;6.03;4.07;;;2.70;99.90;;;;;;5074487;28;20170;-76
2021/11/27 06:42:40;;;;;;;3.90;3.50;;;2.70;99.90;;;;;;5074127;28;20566;-77
2021/11/27 06:45:07;;;;;;;3.90;3.27;;;2.70;99.90;;;;;;5072998;28;20173;-77
2021/11/27 06:47:33;;;;;;;3.70;2.60;;;2.60;99.90;;;;;;5073251;28;20545;-77
2021/11/27 06:49:59;;;;;;;2.97;2.60;;;2.60;99.90;;;;;;5074196;28;20313;-76
2021/11/27 06:52:24;;;;;;;2.60;2.40;;;2.60;99.90;;;;;;5074172;28;20245;-76
2021/11/27 06:54:50;;;;;;;3.83;3.00;;;2.60;99.90;;;;;;5050021;28;20177;-76
2021/11/27 06:57:16;;;;;;;2.60;2.20;;;2.70;99.90;;;;;;5072430;28;20261;-77
2021/11/27 06:59:41;;;;;;;3.17;2.87;;;2.60;99.90;;;;;;5072212;28;20227;-77
2021/11/27 07:02:07;;;;;;;3.83;2.70;;;2.60;99.90;;;;;;5053301;28;20215;-77
2021/11/27 07:04:33;;;;;;;2.73;2.53;;;2.70;99.90;;;;;;5036819;28;20633;-77
2021/11/27 07:06:59;;;;;;;2.70;2.50;;;2.60;99.90;;;;;;5036787;28;20186;-76
2021/11/27 07:09:25;;;;;;;2.17;1.90;;;2.70;99.90;;;;;;5039158;28;20164;-76
2021/11/27 07:11:51;;;;;;;2.93;2.63;;;2.70;99.90;;;;;;5042590;28;20191;-76
2021/11/27 07:14:17;;;;;;;2.70;2.43;;;2.80;99.90;;;;;;5038324;28;20220;-76
2021/11/27 07:16:43;;;;;;;4.00;3.60;;;2.80;99.90;;;;;;5040347;28;20179;-77
2021/11/27 07:19:09;;;;;;;3.20;3.00;;;2.80;99.90;;;;;;5050367;28;20170;-76
2021/11/27 07:21:34;;;;;;;2.47;2.27;;;2.90;99.90;;;;;;5072159;28;20197;-77
2021/11/27 07:24:00;;;;;;;4.40;2.03;;;2.90;99.90;;;;;;5073608;28;20191;-76
2021/11/27 07:26:26;;;;;;;2.03;1.83;;;3.00;99.90;;;;;;5072442;28;20619;-76
2021/11/27 07:28:53;;;;;;;2.07;1.87;;;3.00;99.90;;;;;;5073459;28;20171;-75
2021/11/27 07:31:19;;;;;;;2.17;1.97;;;3.20;99.90;;;;;;5073386;28;20186;-76
2021/11/27 07:33:46;;;;;;;2.20;2.00;;;3.10;99.90;;;;;;5072319;28;20702;-76
2021/11/27 07:36:11;;;;;;;2.70;2.50;;;3.10;99.90;;;;;;5073686;28;20538;-76
2021/11/27 07:38:38;;;;;;;2.37;2.17;;;3.10;99.90;;;;;;5073396;28;20170;-76
2021/11/27 07:41:04;;;;;;;2.27;2.07;;;3.20;99.90;;;;;;5071961;28;20190;-76
2021/11/27 07:43:30;;;;;;;2.20;2.00;;;3.20;99.90;;;;;;5073269;28;20218;-76
2021/11/27 07:45:56;;;;;;;4.70;2.10;;;3.40;99.90;;;;;;5072588;28;20264;-76
2021/11/27 07:48:24;;;;;;;2.40;2.20;;;3.30;99.90;;;;;;5072089;28;20300;-76
2021/11/27 07:50:49;;;;;;;4.47;2.17;;;3.20;99.90;;;;;;5073166;28;20322;-76
2021/11/27 07:53:15;;;;;;;2.40;2.20;;;3.20;99.90;;;;;;5073229;28;20256;-76
2021/11/27 07:55:43;;;;;;;2.37;2.13;;;3.20;99.90;;;;;;5065548;28;20185;-76
2021/11/27 07:58:09;;;;;;;1.97;1.87;;;3.20;99.90;;;;;;5042573;28;20201;-76
2021/11/27 08:00:34;;;;;;;2.33;2.13;;;3.30;99.90;;;;;;5060989;28;20633;-76
2021/11/27 08:03:00;;;;;;;2.20;2.00;;;3.30;99.90;;;;;;5054155;28;20716;-77
2021/11/27 08:05:25;;;;;;;2.53;2.33;;;3.30;99.90;;;;;;5073159;28;20675;-76
2021/11/27 08:07:51;;;;;;;2.63;2.23;;;3.40;99.90;;;;;;5073722;28;20173;-76
2021/11/27 08:10:17;;;;;;;3.30;2.20;;;3.40;99.90;;;;;;5061699;28;20704;-77
2021/11/27 08:12:43;;;;;;;2.10;2.00;;;3.50;99.90;;;;;;5040993;28;20197;-77
2021/11/27 08:15:10;;;;;;;2.20;2.00;;;3.40;99.90;;;;;;5039389;28;20175;-75
2021/11/27 08:17:35;;;;;;;3.03;2.30;;;3.40;99.90;;;;;;5034856;28;20267;-76
2021/11/27 08:20:06;;;;;;;2.83;2.23;;;3.40;99.90;;;;;;5036988;28;20208;-77
2021/11/27 08:22:33;;;;;;;2.50;2.30;;;3.50;99.90;;;;;;5071803;28;20200;-76
2021/11/27 08:24:59;;;;;;;2.50;2.30;;;3.40;99.90;;;;;;5072886;28;20181;-76
2021/11/27 08:27:27;;;;;;;2.53;2.20;;;3.40;99.90;;;;;;5072800;28;20166;-76
2021/11/27 08:29:54;;;;;;;2.33;2.17;;;3.40;99.90;;;;;;5072777;28;20212;-76
2021/11/27 08:32:20;;;;;;;2.63;2.10;;;3.50;99.90;;;;;;5072739;28;20237;-76
2021/11/27 08:34:45;;;;;;;2.30;2.10;;;3.50;99.90;;;;;;5071564;28;20606;-76
2021/11/27 08:37:11;;;;;;;2.73;2.53;;;3.60;99.90;;;;;;5071243;28;20553;-76
2021/11/27 08:39:37;;;;;;;3.17;2.77;;;3.60;99.90;;;;;;5071276;28;20185;-76
2021/11/27 08:42:03;;;;;;;3.87;3.00;;;3.50;99.90;;;;;;5071580;28;20207;-77
2021/11/27 08:44:28;;;;;;;2.70;2.40;;;3.50;99.90;;;;;;5070786;28;20531;-76
2021/11/27 08:46:54;;;;;;;2.57;2.37;;;3.50;99.90;;;;;;5074886;28;20170;-76
2021/11/27 08:49:20;;;;;;;3.03;2.70;;;3.60;99.90;;;;;;5075910;28;20186;-77
2021/11/27 08:51:46;;;;;;;4.97;3.40;;;3.70;99.90;;;;;;5075860;28;20223;-77
2021/11/27 08:54:13;;;;;;;3.73;2.80;;;3.60;99.90;;;;;;5075934;28;20228;-76
2021/11/27 08:56:38;;;;;;;5.77;5.03;;;3.70;99.90;;;;;;5075998;28;20261;-76
2021/11/27 08:59:04;;;;;;;6.13;4.47;;;3.70;99.90;;;;;;5075028;28;20210;-76
2021/11/27 09:01:30;;;;;;;4.93;4.43;;;3.70;99.90;;;;;;5075895;28;20196;-76
2021/11/27 09:03:56;;;;;;;7.37;6.50;;;3.80;99.90;;;;;;5076353;28;20202;-76
2021/11/27 09:06:23;;;;;;;5.60;5.10;;;3.70;99.90;;;;;;5062087;28;20167;-76
2021/11/27 09:08:49;;;;;;;5.70;5.20;;;3.90;99.90;;;;;;5076182;28;20170;-76
2021/11/27 09:11:17;;;;;;;6.80;5.73;;;3.80;99.90;;;;;;5060095;28;20205;-76
2021/11/27 09:13:44;;;;;;;7.23;5.47;;;3.70;99.90;;;;;;5075714;28;20177;-76
2021/11/27 09:16:10;;;;;;;6.00;5.40;;;3.80;99.90;;;;;;5076101;28;20212;-77
2021/11/27 09:18:35;;;;;;;7.53;6.10;;;3.80;99.90;;;;;;5075891;28;20174;-77
2021/11/27 09:21:02;;;;;;;5.23;4.80;;;3.80;99.90;;;;;;5075826;28;20661;-76
2021/11/27 09:23:28;;;;;;;5.83;5.33;;;3.80;99.90;;;;;;5074333;28;20198;-76
2021/11/27 09:25:54;;;;;;;5.30;4.80;;;3.80;99.90;;;;;;5075330;28;20655;-77
2021/11/27 09:28:19;;;;;;;4.70;4.30;;;3.90;99.90;;;;;;5075207;28;20662;-77
2021/11/27 09:30:45;;;;;;;4.93;4.43;;;4.00;99.90;;;;;;5075784;28;20281;-77
2021/11/27 09:33:11;;;;;;;4.30;4.00;;;3.90;99.90;;;;;;5076062;28;20657;-77
2021/11/27 09:35:37;;;;;;;4.53;4.13;;;3.90;99.90;;;;;;5075869;28;20184;-76
2021/11/27 09:38:03;;;;;;;4.83;4.43;;;4.10;99.90;;;;;;5074572;28;20204;-77
2021/11/27 09:40:37;;;;;;;4.37;3.97;;;4.00;99.90;;;;;;5077160;28;20544;-76
2021/11/27 09:43:04;;;;;;;4.43;4.03;;;4.00;99.90;;;;;;5076130;28;20222;-75
2021/11/27 09:45:31;;;;;;;4.70;4.30;;;4.00;99.90;;;;;;5075594;28;20694;-76
2021/11/27 09:47:57;;;;;;;4.20;3.90;;;4.00;99.90;;;;;;5074117;28;20179;-76
2021/11/27 09:50:23;;;;;;;3.70;3.30;;;4.00;99.90;;;;;;5075348;28;20222;-76
2021/11/27 09:52:52;;;;;;;4.40;4.00;;;4.00;99.90;;;;;;5053132;28;20180;-76
2021/11/27 09:55:19;;;;;;;4.80;4.30;;;4.00;99.90;;;;;;5039105;28;20186;-76
2021/11/27 09:57:46;;;;;;;5.07;4.67;;;4.10;99.90;;;;;;5044635;28;20185;-76
2021/11/27 10:00:14;;;;;;;4.57;4.13;;;4.20;99.90;;;;;;5039978;28;20173;-76
2021/11/27 10:02:42;;;;;;;4.23;3.83;;;4.30;99.90;;;;;;5037212;28;20218;-76
2021/11/27 10:05:10;;;;;;;4.73;4.33;;;4.30;99.90;;;;;;5041305;28;20182;-77
2021/11/27 10:07:37;;;;;;;4.17;3.77;;;4.50;99.90;;;;;;5057742;28;20174;-76
2021/11/27 10:10:04;;;;;;;3.07;2.87;;;5.00;99.90;;;;;;5070601;28;20646;-77
2021/11/27 10:12:30;;;;;;;3.17;2.80;;;4.80;99.90;;;;;;5054523;28;20666;-77
2021/11/27 10:14:55;;;;;;;4.40;2.73;;;4.90;99.90;;;;;;5060728;28;20195;-77
2021/11/27 10:17:22;;;;;;;3.07;2.70;;;5.10;99.90;;;;;;5049692;28;20175;-77
2021/11/27 10:19:50;;;;;;;3.63;2.57;;;5.20;99.90;;;;;;5074886;28;20549;-76
2021/11/27 10:22:21;;;;;;;2.97;2.77;;;5.40;99.90;;;;;;5074905;28;20304;-76
2021/11/27 10:24:47;;;;;;;3.40;3.00;;;5.50;99.90;;;;;;5056348;28;20627;-76
2021/11/27 10:27:32;;;;;;;2.40;2.20;;;5.70;99.90;;;;;;5064898;28;20206;-76
2021/11/27 10:29:59;;;;;;;3.47;2.03;;;5.80;99.90;;;;;;5073562;28;20170;-76
2021/11/27 10:32:31;;;;;;;1.80;1.70;;;5.80;99.90;;;;;;5074524;28;20200;-76
2021/11/27 10:34:57;;;;;;;3.40;1.90;;;5.90;99.90;;;;;;5062977;28;20184;-76
2021/11/27 10:37:26;;;;;;;2.07;1.70;;;5.90;99.90;;;;;;5040234;28;20184;-76
2021/11/27 10:40:19;;;;;;;2.03;1.83;;;5.80;99.90;;;;;;5040235;28;20227;-76
2021/11/27 10:42:47;;;;;;;3.63;1.83;;;5.90;99.90;;;;;;5039396;28;20564;-76
2021/11/27 10:45:25;;;;;;;2.70;1.90;;;6.10;99.90;;;;;;5038956;28;20204;-76
2021/11/27 10:48:07;;;;;;;3.03;2.20;;;6.30;99.90;;;;;;5039882;28;20181;-76
2021/11/27 10:50:39;;;;;;;2.70;1.87;;;6.50;99.90;;;;;;5047673;28;20192;-76
2021/11/27 10:53:09;;;;;;;2.20;1.50;;;6.50;99.90;;;;;;5068647;28;20250;-76
2021/11/27 10:55:35;;;;;;;1.40;1.00;;;6.50;99.90;;;;;;5063125;28;20269;-76
2021/11/27 10:58:02;;;;;;;2.37;1.17;;;6.50;99.90;;;;;;5073936;28;20249;-76
2021/11/27 11:00:30;;;;;;;3.13;1.10;;;6.50;99.90;;;;;;5072679;28;20190;-76
2021/11/27 11:02:57;;;;;;;2.00;0.63;;;6.40;99.90;;;;;;5072649;28;20639;-76
2021/11/27 11:05:32;;;;;;;0.70;0.70;;;6.10;99.90;;;;;;5072965;28;20171;-76
2021/11/27 11:07:59;;;;;;;0.43;0.43;;;6.00;99.90;;;;;;5071972;28;20674;-76
2021/11/27 11:10:31;;;;;;;1.00;0.63;;;6.00;99.90;;;;;;5071335;28;20171;-76
2021/11/27 11:13:03;;;;;;;1.73;0.60;;;5.90;99.90;;;;;;5060936;28;20210;-76
2021/11/27 11:15:37;;;;;;;1.00;0.70;;;5.70;99.90;;;;;;5073773;28;20183;-76
2021/11/27 11:18:09;;;;;;;0.60;0.50;;;5.60;99.90;;;;;;5075248;28;20181;-76
2021/11/27 11:20:38;;;;;;;2.43;0.40;;;5.40;99.90;;;;;;5058847;28;20179;-77
2021/11/27 11:23:05;;;;;;;2.10;1.10;;;5.20;99.90;;;;;;5054910;28;20192;-76
2021/11/27 11:25:34;;;;;;;1.20;1.10;;;5.10;99.90;;;;;;5072482;28;20629;-77
2021/11/27 11:28:10;;;;;;;1.07;0.97;;;5.00;99.90;;;;;;5066175;28;20226;-77
2021/11/27 11:30:38;;;;;;;0.40;0.40;;;5.00;99.90;;;;;;5052914;28;20174;-76
2021/11/27 11:33:05;;;;;;;1.93;1.00;;;4.90;99.90;;;;;;5060894;28;20184;-76
2021/11/27 11:35:32;;;;;;;2.27;1.30;;;5.00;99.90;;;;;;5073403;28;20656;-76
2021/11/27 11:37:58;;;;;;;4.87;1.90;;;4.90;99.90;;;;;;5072086;28;20184;-77
2021/11/27 11:40:23;;;;;;;3.00;1.30;;;5.00;99.90;;;;;;5072458;28;20594;-77
2021/11/27 11:42:49;;;;;;;1.03;0.73;;;5.10;99.90;;;;;;5072184;28;20277;-78
2021/11/27 11:45:15;;;;;;;3.03;0.70;;;5.10;99.90;;;;;;5073313;28;20173;-76
2021/11/27 11:47:41;;;;;;;0.53;0.50;;;5.10;99.90;;;;;;5073355;28;20547;-76
2021/11/27 11:50:11;;;;;;;2.27;0.97;;;5.10;99.90;;;;;;5073323;28;20541;-76
2021/11/27 11:52:55;;;;;;;0.60;0.60;;;4.90;99.90;;;;;;5073117;28;20204;-76
2021/11/27 11:55:21;;;;;;;1.57;0.57;;;4.90;99.90;;;;;;5072057;28;20175;-76
2021/11/27 11:57:48;;;;;;;1.03;0.70;;;5.00;99.90;;;;;;5073304;28;20214;-76
2021/11/27 12:00:22;;;;;;;2.30;0.63;;;5.00;99.90;;;;;;5063909;28;20262;-77
2021/11/27 12:02:49;;;;;;;2.10;1.00;;;5.10;99.90;;;;;;5039698;28;20674;-76
2021/11/27 12:05:15;;;;;;;3.33;1.97;;;5.10;99.90;;;;;;5032927;28;20310;-77
2021/11/27 12:07:44;;;;;;;1.70;1.20;;;5.20;99.90;;;;;;5032877;28;20578;-77
2021/11/27 12:10:40;;;;;;;1.63;0.87;;;5.30;99.90;;;;;;5031941;28;20750;-77
2021/11/27 12:13:06;;;;;;;0.77;0.53;;;5.50;99.90;;;;;;5061069;28;20180;-77
2021/11/27 12:15:40;;;;;;;2.57;1.17;;;5.40;99.90;;;;;;5057987;28;20580;-76
2021/11/27 12:18:18;;;;;;;0.90;0.70;;;5.40;99.90;;;;;;5071786;28;20228;-76
2021/11/27 12:20:59;;;;;;;0.87;0.60;;;5.30;99.90;;;;;;5076966;28;20546;-76
2021/11/27 12:23:43;;;;;;;1.37;0.90;;;5.20;99.90;;;;;;5075296;28;20203;-76
2021/11/27 12:26:09;;;;;;;1.20;0.90;;;5.00;99.90;;;;;;5077298;28;20530;-77
2021/11/27 12:28:48;;;;;;;1.37;0.70;;;5.00;99.90;;;;;;5077094;28;20173;-77
2021/11/27 12:31:18;;;;;;;2.93;0.80;;;5.00;99.90;;;;;;5077022;28;20190;-77
2021/11/27 12:33:51;;;;;;;1.00;0.53;;;4.90;99.90;;;;;;5040301;28;20715;-77
2021/11/27 12:36:41;;;;;;;1.63;0.87;;;4.80;99.90;;;;;;5044766;28;20732;-77
2021/11/27 12:39:06;;;;;;;0.30;0.30;;;4.80;99.90;;;;;;5046569;28;20343;-76
2021/11/27 12:41:35;;;;;;;0.73;0.53;;;4.60;99.90;;;;;;5037977;28;20729;-77
2021/11/27 12:44:23;;;;;;;0.87;0.43;;;4.60;99.90;;;;;;5035740;28;20195;-76
2021/11/27 12:47:00;;;;;;;1.70;0.97;;;4.60;99.90;;;;;;5035916;28;20178;-77
2021/11/27 12:49:32;;;;;;;0.63;0.63;;;4.70;99.90;;;;;;5044797;28;20175;-76
2021/11/27 12:52:16;;;;;;;0.60;0.60;;;4.80;99.90;;;;;;5039644;28;20689;-76
2021/11/27 12:54:56;;;;;;;0.87;0.87;;;5.10;99.90;;;;;;5042275;28;20205;-76
2021/11/27 12:57:26;;;;;;;2.93;1.00;;;4.90;99.90;;;;;;5037782;28;20645;-76